Terminal Aerodrome Forecast
Issued by NWS Bismarck, ND

Home | Current Version | Previous Version | Text Only | Print | Product List | Glossary Off
Versions: 1 2 3 4 5 6 7 8 9 10 11 12 13 14 15 16

000
FTUS43 KBIS 211630 AAA
TAFISN
TAF AMD
KISN 211630Z 2117/2212 28016G23KT P6SM OVC025
     FM211900 28023G34KT P6SM BKN040
     FM212300 28019G29KT P6SM SCT140
     FM220100 26011KT P6SM FEW250=

USA.gov is the U.S. government's official web portal to all federal, state and local government web resources and services.